sensor_id;sensor_type;location;lat;lon;timestamp;temperature;humidity
35700;DHT22;21818;51.078;12.108;2023-01-04T00:00:59;12.30;78.60
35700;DHT22;21818;51.078;12.108;2023-01-04T00:03:24;12.30;78.70
35700;DHT22;21818;51.078;12.108;2023-01-04T00:05:50;12.30;78.60
35700;DHT22;21818;51.078;12.108;2023-01-04T00:08:15;12.50;79.10
35700;DHT22;21818;51.078;12.108;2023-01-04T00:10:41;12.50;78.30
35700;DHT22;21818;51.078;12.108;2023-01-04T00:13:06;12.50;78.30
35700;DHT22;21818;51.078;12.108;2023-01-04T00:15:32;12.50;78.30
35700;DHT22;21818;51.078;12.108;2023-01-04T00:17:57;12.40;78.40
35700;DHT22;21818;51.078;12.108;2023-01-04T00:20:23;12.40;78.50
35700;DHT22;21818;51.078;12.108;2023-01-04T00:22:48;12.30;78.50
35700;DHT22;21818;51.078;12.108;2023-01-04T00:25:14;12.30;78.70
35700;DHT22;21818;51.078;12.108;2023-01-04T00:27:39;12.30;78.70
35700;DHT22;21818;51.078;12.108;2023-01-04T00:30:05;12.30;78.50
35700;DHT22;21818;51.078;12.108;2023-01-04T00:32:31;12.30;78.50
35700;DHT22;21818;51.078;12.108;2023-01-04T00:34:56;12.30;78.60
35700;DHT22;21818;51.078;12.108;2023-01-04T00:37:22;12.30;78.50
35700;DHT22;21818;51.078;12.108;2023-01-04T00:39:48;12.30;78.50
35700;DHT22;21818;51.078;12.108;2023-01-04T00:42:13;12.30;78.50
35700;DHT22;21818;51.078;12.108;2023-01-04T00:44:39;12.50;78.50
35700;DHT22;21818;51.078;12.108;2023-01-04T00:47:04;12.50;78.20
35700;DHT22;21818;51.078;12.108;2023-01-04T00:49:30;12.70;77.90
35700;DHT22;21818;51.078;12.108;2023-01-04T00:51:56;12.70;77.90
35700;DHT22;21818;51.078;12.108;2023-01-04T00:54:22;12.80;77.80
35700;DHT22;21818;51.078;12.108;2023-01-04T00:56:48;12.80;77.60
35700;DHT22;21818;51.078;12.108;2023-01-04T00:59:16;12.80;77.60
35700;DHT22;21818;51.078;12.108;2023-01-04T01:01:42;12.70;77.70
35700;DHT22;21818;51.078;12.108;2023-01-04T01:04:11;12.60;78.00
35700;DHT22;21818;51.078;12.108;2023-01-04T01:06:37;12.50;78.10
35700;DHT22;21818;51.078;12.108;2023-01-04T01:09:03;12.40;78.30
35700;DHT22;21818;51.078;12.108;2023-01-04T01:11:29;12.30;78.50
35700;DHT22;21818;51.078;12.108;2023-01-04T01:13:55;12.20;78.50
35700;DHT22;21818;51.078;12.108;2023-01-04T01:16:22;12.10;78.50
35700;DHT22;21818;51.078;12.108;2023-01-04T01:18:48;12.10;78.60
35700;DHT22;21818;51.078;12.108;2023-01-04T01:21:17;12.10;78.60
35700;DHT22;21818;51.078;12.108;2023-01-04T01:23:43;12.30;78.50
35700;DHT22;21818;51.078;12.108;2023-01-04T01:26:11;12.40;78.20
35700;DHT22;21818;51.078;12.108;2023-01-04T01:28:38;12.40;78.20
35700;DHT22;21818;51.078;12.108;2023-01-04T01:31:09;12.60;78.10
35700;DHT22;21818;51.078;12.108;2023-01-04T01:33:36;12.60;78.00
35700;DHT22;21818;51.078;12.108;2023-01-04T01:36:02;12.60;77.90
35700;DHT22;21818;51.078;12.108;2023-01-04T01:38:28;12.70;77.90
35700;DHT22;21818;51.078;12.108;2023-01-04T01:40:54;12.90;77.60
35700;DHT22;21818;51.078;12.108;2023-01-04T01:43:22;12.90;77.40
35700;DHT22;21818;51.078;12.108;2023-01-04T01:45:51;12.90;77.30
35700;DHT22;21818;51.078;12.108;2023-01-04T01:48:26;12.90;77.30
35700;DHT22;21818;51.078;12.108;2023-01-04T01:51:00;13.00;77.40
35700;DHT22;21818;51.078;12.108;2023-01-04T01:53:28;13.00;77.20
35700;DHT22;21818;51.078;12.108;2023-01-04T01:55:55;13.00;77.70
35700;DHT22;21818;51.078;12.108;2023-01-04T01:58:30;13.00;77.10
35700;DHT22;21818;51.078;12.108;2023-01-04T02:00:58;13.00;77.10
35700;DHT22;21818;51.078;12.108;2023-01-04T02:03:30;13.00;77.10
35700;DHT22;21818;51.078;12.108;2023-01-04T02:05:57;13.00;76.90
35700;DHT22;21818;51.078;12.108;2023-01-04T02:08:24;13.10;76.90
35700;DHT22;21818;51.078;12.108;2023-01-04T02:10:50;13.10;76.80
35700;DHT22;21818;51.078;12.108;2023-01-04T02:13:27;13.10;76.70
35700;DHT22;21818;51.078;12.108;2023-01-04T02:16:25;13.00;76.70
35700;DHT22;21818;51.078;12.108;2023-01-04T02:19:03;13.00;76.80
35700;DHT22;21818;51.078;12.108;2023-01-04T02:21:49;13.00;76.90
35700;DHT22;21818;51.078;12.108;2023-01-04T02:38:26;12.90;76.90
35700;DHT22;21818;51.078;12.108;2023-01-04T02:43:32;12.70;77.30
35700;DHT22;21818;51.078;12.108;2023-01-04T02:46:27;12.80;77.00
35700;DHT22;21818;51.078;12.108;2023-01-04T02:48:58;12.70;77.10
35700;DHT22;21818;51.078;12.108;2023-01-04T02:51:42;12.70;76.90
35700;DHT22;21818;51.078;12.108;2023-01-04T02:54:28;12.70;77.10
35700;DHT22;21818;51.078;12.108;2023-01-04T03:02:33;12.50;77.30
35700;DHT22;21818;51.078;12.108;2023-01-04T03:10:52;12.40;77.40
35700;DHT22;21818;51.078;12.108;2023-01-04T03:13:30;12.40;77.40
35700;DHT22;21818;51.078;12.108;2023-01-04T03:16:06;12.50;77.40
35700;DHT22;21818;51.078;12.108;2023-01-04T03:18:36;12.50;77.30
35700;DHT22;21818;51.078;12.108;2023-01-04T03:21:06;12.50;77.20
35700;DHT22;21818;51.078;12.108;2023-01-04T03:23:35;12.60;77.20
35700;DHT22;21818;51.078;12.108;2023-01-04T03:26:27;12.60;77.20
35700;DHT22;21818;51.078;12.108;2023-01-04T03:32:37;12.60;77.00
35700;DHT22;21818;51.078;12.108;2023-01-04T03:35:28;12.50;77.10
35700;DHT22;21818;51.078;12.108;2023-01-04T03:38:25;12.50;77.20
35700;DHT22;21818;51.078;12.108;2023-01-04T03:41:21;12.40;77.20
35700;DHT22;21818;51.078;12.108;2023-01-04T03:47:09;12.50;77.30
35700;DHT22;21818;51.078;12.108;2023-01-04T03:49:59;12.60;77.10
35700;DHT22;21818;51.078;12.108;2023-01-04T03:52:28;12.70;76.90
35700;DHT22;21818;51.078;12.108;2023-01-04T03:54:56;12.70;76.70
35700;DHT22;21818;51.078;12.108;2023-01-04T03:57:22;12.70;76.70
35700;DHT22;21818;51.078;12.108;2023-01-04T03:59:52;12.80;76.80
35700;DHT22;21818;51.078;12.108;2023-01-04T04:02:23;12.80;76.70
35700;DHT22;21818;51.078;12.108;2023-01-04T04:04:52;12.90;76.60
35700;DHT22;21818;51.078;12.108;2023-01-04T04:07:36;13.00;76.60
35700;DHT22;21818;51.078;12.108;2023-01-04T04:10:20;13.00;76.60
35700;DHT22;21818;51.078;12.108;2023-01-04T04:12:46;13.00;76.40
35700;DHT22;21818;51.078;12.108;2023-01-04T04:15:13;13.10;76.30
35700;DHT22;21818;51.078;12.108;2023-01-04T04:17:39;13.00;76.30
35700;DHT22;21818;51.078;12.108;2023-01-04T04:20:05;12.90;76.50
35700;DHT22;21818;51.078;12.108;2023-01-04T04:22:31;12.90;76.70
35700;DHT22;21818;51.078;12.108;2023-01-04T04:24:57;12.90;76.60
35700;DHT22;21818;51.078;12.108;2023-01-04T04:27:22;13.00;76.60
35700;DHT22;21818;51.078;12.108;2023-01-04T04:29:48;13.00;76.60
35700;DHT22;21818;51.078;12.108;2023-01-04T04:32:13;13.00;76.40
35700;DHT22;21818;51.078;12.108;2023-01-04T04:34:39;13.10;76.50
35700;DHT22;21818;51.078;12.108;2023-01-04T04:37:05;13.00;76.60
35700;DHT22;21818;51.078;12.108;2023-01-04T04:39:31;13.00;76.50
35700;DHT22;21818;51.078;12.108;2023-01-04T04:41:56;13.00;76.50
35700;DHT22;21818;51.078;12.108;2023-01-04T04:44:22;13.00;76.50
35700;DHT22;21818;51.078;12.108;2023-01-04T04:46:48;13.00;76.90
35700;DHT22;21818;51.078;12.108;2023-01-04T04:49:15;13.00;76.40
35700;DHT22;21818;51.078;12.108;2023-01-04T04:51:41;13.10;76.50
35700;DHT22;21818;51.078;12.108;2023-01-04T04:54:08;13.10;76.40
35700;DHT22;21818;51.078;12.108;2023-01-04T04:56:34;13.10;76.30
35700;DHT22;21818;51.078;12.108;2023-01-04T04:59:02;13.10;76.20
35700;DHT22;21818;51.078;12.108;2023-01-04T05:01:27;13.10;76.30
35700;DHT22;21818;51.078;12.108;2023-01-04T05:03:53;13.10;76.20
35700;DHT22;21818;51.078;12.108;2023-01-04T05:06:19;13.10;76.30
35700;DHT22;21818;51.078;12.108;2023-01-04T05:08:44;13.10;76.30
35700;DHT22;21818;51.078;12.108;2023-01-04T05:11:11;13.00;76.40
35700;DHT22;21818;51.078;12.108;2023-01-04T05:13:37;13.00;76.50
35700;DHT22;21818;51.078;12.108;2023-01-04T05:16:03;13.00;76.60
35700;DHT22;21818;51.078;12.108;2023-01-04T05:18:30;13.10;76.60
35700;DHT22;21818;51.078;12.108;2023-01-04T05:20:55;13.10;76.60
35700;DHT22;21818;51.078;12.108;2023-01-04T05:23:21;13.10;76.60
35700;DHT22;21818;51.078;12.108;2023-01-04T05:25:52;13.10;76.40
35700;DHT22;21818;51.078;12.108;2023-01-04T05:28:18;13.10;76.40
35700;DHT22;21818;51.078;12.108;2023-01-04T05:30:43;13.20;76.40
35700;DHT22;21818;51.078;12.108;2023-01-04T05:33:37;13.20;76.30
35700;DHT22;21818;51.078;12.108;2023-01-04T05:36:03;13.20;76.30
35700;DHT22;21818;51.078;12.108;2023-01-04T05:38:29;13.20;76.30
35700;DHT22;21818;51.078;12.108;2023-01-04T05:40:55;13.20;76.20
35700;DHT22;21818;51.078;12.108;2023-01-04T05:43:22;13.20;76.20
35700;DHT22;21818;51.078;12.108;2023-01-04T05:45:55;13.20;76.30
35700;DHT22;21818;51.078;12.108;2023-01-04T05:48:22;13.30;76.20
35700;DHT22;21818;51.078;12.108;2023-01-04T05:50:48;13.30;76.10
35700;DHT22;21818;51.078;12.108;2023-01-04T05:53:15;13.30;76.20
35700;DHT22;21818;51.078;12.108;2023-01-04T05:55:43;13.30;76.10
35700;DHT22;21818;51.078;12.108;2023-01-04T05:58:09;13.30;76.10
35700;DHT22;21818;51.078;12.108;2023-01-04T06:00:34;13.30;76.00
35700;DHT22;21818;51.078;12.108;2023-01-04T06:03:00;13.30;76.00
35700;DHT22;21818;51.078;12.108;2023-01-04T06:05:26;13.30;76.00
35700;DHT22;21818;51.078;12.108;2023-01-04T06:07:52;13.30;76.00
35700;DHT22;21818;51.078;12.108;2023-01-04T06:10:18;13.30;76.00
35700;DHT22;21818;51.078;12.108;2023-01-04T06:12:44;13.30;76.00
35700;DHT22;21818;51.078;12.108;2023-01-04T06:15:10;13.30;75.90
35700;DHT22;21818;51.078;12.108;2023-01-04T06:17:37;13.30;75.90
35700;DHT22;21818;51.078;12.108;2023-01-04T06:20:04;13.30;75.80
35700;DHT22;21818;51.078;12.108;2023-01-04T06:22:30;13.30;75.80
35700;DHT22;21818;51.078;12.108;2023-01-04T06:24:57;13.30;75.80
35700;DHT22;21818;51.078;12.108;2023-01-04T06:27:22;13.30;75.70
35700;DHT22;21818;51.078;12.108;2023-01-04T06:29:48;13.30;75.70
35700;DHT22;21818;51.078;12.108;2023-01-04T06:32:14;13.30;75.60
35700;DHT22;21818;51.078;12.108;2023-01-04T06:34:39;13.30;75.70
35700;DHT22;21818;51.078;12.108;2023-01-04T06:37:05;13.30;75.70
35700;DHT22;21818;51.078;12.108;2023-01-04T06:39:30;13.30;75.70
35700;DHT22;21818;51.078;12.108;2023-01-04T06:41:56;13.30;75.60
35700;DHT22;21818;51.078;12.108;2023-01-04T06:44:22;13.30;75.60
35700;DHT22;21818;51.078;12.108;2023-01-04T06:46:47;13.30;75.40
35700;DHT22;21818;51.078;12.108;2023-01-04T06:49:13;13.40;75.50
35700;DHT22;21818;51.078;12.108;2023-01-04T06:51:39;13.40;75.40
35700;DHT22;21818;51.078;12.108;2023-01-04T06:54:04;13.30;75.50
35700;DHT22;21818;51.078;12.108;2023-01-04T06:56:30;13.30;75.50
35700;DHT22;21818;51.078;12.108;2023-01-04T06:58:56;13.30;75.50
35700;DHT22;21818;51.078;12.108;2023-01-04T07:01:22;13.30;75.40
35700;DHT22;21818;51.078;12.108;2023-01-04T07:03:48;13.30;75.50
35700;DHT22;21818;51.078;12.108;2023-01-04T07:06:13;13.20;75.40
35700;DHT22;21818;51.078;12.108;2023-01-04T07:08:39;13.20;75.60
35700;DHT22;21818;51.078;12.108;2023-01-04T07:11:04;13.20;75.60
35700;DHT22;21818;51.078;12.108;2023-01-04T07:13:30;13.20;75.70
35700;DHT22;21818;51.078;12.108;2023-01-04T07:15:55;13.20;76.20
35700;DHT22;21818;51.078;12.108;2023-01-04T07:18:21;13.20;75.70
35700;DHT22;21818;51.078;12.108;2023-01-04T07:20:47;13.10;75.70
35700;DHT22;21818;51.078;12.108;2023-01-04T07:23:12;13.10;75.60
35700;DHT22;21818;51.078;12.108;2023-01-04T07:25:38;13.10;75.70
35700;DHT22;21818;51.078;12.108;2023-01-04T07:28:03;13.10;75.70
35700;DHT22;21818;51.078;12.108;2023-01-04T07:30:29;13.00;75.80
35700;DHT22;21818;51.078;12.108;2023-01-04T07:32:55;13.00;75.90
35700;DHT22;21818;51.078;12.108;2023-01-04T07:35:22;13.00;76.00
35700;DHT22;21818;51.078;12.108;2023-01-04T07:37:48;13.00;76.00
35700;DHT22;21818;51.078;12.108;2023-01-04T07:40:13;12.90;76.00
35700;DHT22;21818;51.078;12.108;2023-01-04T07:42:39;12.90;76.00
35700;DHT22;21818;51.078;12.108;2023-01-04T07:45:05;12.90;76.20
35700;DHT22;21818;51.078;12.108;2023-01-04T07:47:31;12.90;76.30
35700;DHT22;21818;51.078;12.108;2023-01-04T07:49:57;12.90;76.40
35700;DHT22;21818;51.078;12.108;2023-01-04T07:52:24;12.80;76.40
35700;DHT22;21818;51.078;12.108;2023-01-04T07:54:50;12.90;76.50
35700;DHT22;21818;51.078;12.108;2023-01-04T07:57:16;12.90;76.50
35700;DHT22;21818;51.078;12.108;2023-01-04T07:59:41;12.80;76.50
35700;DHT22;21818;51.078;12.108;2023-01-04T08:02:10;12.90;76.50
35700;DHT22;21818;51.078;12.108;2023-01-04T08:04:35;13.00;76.40
35700;DHT22;21818;51.078;12.108;2023-01-04T08:07:01;13.20;76.00
35700;DHT22;21818;51.078;12.108;2023-01-04T08:09:27;13.30;75.70
35700;DHT22;21818;51.078;12.108;2023-01-04T08:11:52;13.40;75.50
35700;DHT22;21818;51.078;12.108;2023-01-04T08:14:18;13.50;75.30
35700;DHT22;21818;51.078;12.108;2023-01-04T08:16:43;13.60;75.20
35700;DHT22;21818;51.078;12.108;2023-01-04T08:19:13;13.50;75.10
35700;DHT22;21818;51.078;12.108;2023-01-04T08:21:39;13.60;75.10
35700;DHT22;21818;51.078;12.108;2023-01-04T08:24:05;13.60;75.10
35700;DHT22;21818;51.078;12.108;2023-01-04T08:26:31;13.70;75.10
35700;DHT22;21818;51.078;12.108;2023-01-04T08:28:57;13.70;75.10
35700;DHT22;21818;51.078;12.108;2023-01-04T08:31:25;13.70;75.10
35700;DHT22;21818;51.078;12.108;2023-01-04T08:33:52;13.70;75.00
35700;DHT22;21818;51.078;12.108;2023-01-04T08:36:21;13.70;75.00
35700;DHT22;21818;51.078;12.108;2023-01-04T08:38:48;13.70;75.00
35700;DHT22;21818;51.078;12.108;2023-01-04T08:41:14;13.70;74.90
35700;DHT22;21818;51.078;12.108;2023-01-04T08:43:40;13.70;75.50
35700;DHT22;21818;51.078;12.108;2023-01-04T08:46:06;13.70;74.90
35700;DHT22;21818;51.078;12.108;2023-01-04T08:48:32;13.80;75.00
35700;DHT22;21818;51.078;12.108;2023-01-04T08:51:04;13.70;74.90
35700;DHT22;21818;51.078;12.108;2023-01-04T08:53:30;13.70;74.90
35700;DHT22;21818;51.078;12.108;2023-01-04T08:55:56;13.70;74.90
35700;DHT22;21818;51.078;12.108;2023-01-04T08:58:23;13.80;75.00
35700;DHT22;21818;51.078;12.108;2023-01-04T09:00:49;13.70;75.00
35700;DHT22;21818;51.078;12.108;2023-01-04T09:03:15;13.70;75.00
35700;DHT22;21818;51.078;12.108;2023-01-04T09:05:40;13.70;75.00
35700;DHT22;21818;51.078;12.108;2023-01-04T09:08:06;13.80;75.00
35700;DHT22;21818;51.078;12.108;2023-01-04T09:10:32;13.80;75.00
35700;DHT22;21818;51.078;12.108;2023-01-04T09:12:58;13.80;75.00
35700;DHT22;21818;51.078;12.108;2023-01-04T09:15:23;13.80;75.00
35700;DHT22;21818;51.078;12.108;2023-01-04T09:17:49;13.80;74.90
35700;DHT22;21818;51.078;12.108;2023-01-04T09:20:15;13.80;74.90
35700;DHT22;21818;51.078;12.108;2023-01-04T09:22:41;13.80;74.80
35700;DHT22;21818;51.078;12.108;2023-01-04T09:25:07;13.80;74.80
35700;DHT22;21818;51.078;12.108;2023-01-04T09:27:32;13.90;74.80
35700;DHT22;21818;51.078;12.108;2023-01-04T09:29:59;13.80;74.70
35700;DHT22;21818;51.078;12.108;2023-01-04T09:32:25;13.90;74.70
35700;DHT22;21818;51.078;12.108;2023-01-04T09:34:51;13.90;74.70
35700;DHT22;21818;51.078;12.108;2023-01-04T09:37:17;13.90;74.70
35700;DHT22;21818;51.078;12.108;2023-01-04T09:39:42;13.90;74.70
35700;DHT22;21818;51.078;12.108;2023-01-04T09:42:40;13.90;74.70
35700;DHT22;21818;51.078;12.108;2023-01-04T09:45:15;13.90;74.70
35700;DHT22;21818;51.078;12.108;2023-01-04T09:47:58;13.90;74.60
35700;DHT22;21818;51.078;12.108;2023-01-04T09:50:33;13.90;74.60
35700;DHT22;21818;51.078;12.108;2023-01-04T09:53:15;13.90;74.60
35700;DHT22;21818;51.078;12.108;2023-01-04T09:55:44;13.90;74.60
35700;DHT22;21818;51.078;12.108;2023-01-04T10:00:58;13.90;74.60
35700;DHT22;21818;51.078;12.108;2023-01-04T10:03:28;13.90;74.60
35700;DHT22;21818;51.078;12.108;2023-01-04T10:05:55;13.90;74.50
35700;DHT22;21818;51.078;12.108;2023-01-04T10:08:22;13.90;74.50
35700;DHT22;21818;51.078;12.108;2023-01-04T10:13:22;13.90;74.40
35700;DHT22;21818;51.078;12.108;2023-01-04T10:16:00;14.00;74.50
35700;DHT22;21818;51.078;12.108;2023-01-04T10:21:33;14.00;74.40
35700;DHT22;21818;51.078;12.108;2023-01-04T10:26:44;14.00;74.30
35700;DHT22;21818;51.078;12.108;2023-01-04T10:32:09;14.00;74.30
35700;DHT22;21818;51.078;12.108;2023-01-04T10:34:41;14.00;74.30
35700;DHT22;21818;51.078;12.108;2023-01-04T10:37:19;14.00;74.20
35700;DHT22;21818;51.078;12.108;2023-01-04T10:39:50;14.00;74.20
35700;DHT22;21818;51.078;12.108;2023-01-04T10:42:32;14.00;74.20
35700;DHT22;21818;51.078;12.108;2023-01-04T10:50:36;14.10;74.20
35700;DHT22;21818;51.078;12.108;2023-01-04T10:53:15;14.10;74.70
35700;DHT22;21818;51.078;12.108;2023-01-04T10:55:52;14.10;74.10
35700;DHT22;21818;51.078;12.108;2023-01-04T10:58:30;14.10;74.10
35700;DHT22;21818;51.078;12.108;2023-01-04T11:01:04;14.10;74.10
35700;DHT22;21818;51.078;12.108;2023-01-04T11:03:36;14.10;74.10
35700;DHT22;21818;51.078;12.108;2023-01-04T11:06:08;14.10;74.10
35700;DHT22;21818;51.078;12.108;2023-01-04T11:08:49;14.10;74.20
35700;DHT22;21818;51.078;12.108;2023-01-04T11:11:24;14.10;74.00
35700;DHT22;21818;51.078;12.108;2023-01-04T11:13:52;14.10;74.00
35700;DHT22;21818;51.078;12.108;2023-01-04T11:16:18;14.10;74.50
35700;DHT22;21818;51.078;12.108;2023-01-04T11:18:45;14.10;73.90
35700;DHT22;21818;51.078;12.108;2023-01-04T11:21:12;14.10;73.90
35700;DHT22;21818;51.078;12.108;2023-01-04T11:23:39;14.10;73.90
35700;DHT22;21818;51.078;12.108;2023-01-04T11:26:18;14.10;73.90
35700;DHT22;21818;51.078;12.108;2023-01-04T11:31:29;14.10;73.90
35700;DHT22;21818;51.078;12.108;2023-01-04T11:34:01;14.10;73.90
35700;DHT22;21818;51.078;12.108;2023-01-04T11:36:37;14.10;73.90
35700;DHT22;21818;51.078;12.108;2023-01-04T11:39:20;14.10;73.90
35700;DHT22;21818;51.078;12.108;2023-01-04T11:41:56;14.10;73.90
35700;DHT22;21818;51.078;12.108;2023-01-04T11:44:23;14.10;74.00
35700;DHT22;21818;51.078;12.108;2023-01-04T11:47:18;14.10;74.00
35700;DHT22;21818;51.078;12.108;2023-01-04T11:49:44;14.10;74.00
35700;DHT22;21818;51.078;12.108;2023-01-04T11:54:53;14.20;74.10
35700;DHT22;21818;51.078;12.108;2023-01-04T11:57:19;14.10;74.00
35700;DHT22;21818;51.078;12.108;2023-01-04T12:00:06;14.10;74.00
35700;DHT22;21818;51.078;12.108;2023-01-04T12:02:32;14.10;74.00
35700;DHT22;21818;51.078;12.108;2023-01-04T12:04:57;14.20;74.00
35700;DHT22;21818;51.078;12.108;2023-01-04T12:07:32;14.20;74.00
35700;DHT22;21818;51.078;12.108;2023-01-04T12:10:00;14.20;74.00
35700;DHT22;21818;51.078;12.108;2023-01-04T12:12:28;14.20;74.00
35700;DHT22;21818;51.078;12.108;2023-01-04T12:14:55;14.20;74.10
35700;DHT22;21818;51.078;12.108;2023-01-04T12:19:55;14.20;74.00
35700;DHT22;21818;51.078;12.108;2023-01-04T12:24:47;14.20;74.00
35700;DHT22;21818;51.078;12.108;2023-01-04T12:27:13;14.20;74.00
35700;DHT22;21818;51.078;12.108;2023-01-04T12:29:44;14.20;74.00
35700;DHT22;21818;51.078;12.108;2023-01-04T12:34:43;14.20;74.00
35700;DHT22;21818;51.078;12.108;2023-01-04T12:37:10;14.20;73.90
35700;DHT22;21818;51.078;12.108;2023-01-04T12:39:42;14.30;74.00
35700;DHT22;21818;51.078;12.108;2023-01-04T12:42:19;14.30;73.90
35700;DHT22;21818;51.078;12.108;2023-01-04T12:50:17;14.50;73.70
35700;DHT22;21818;51.078;12.108;2023-01-04T12:57:54;14.80;73.30
35700;DHT22;21818;51.078;12.108;2023-01-04T13:00:20;14.70;73.30
35700;DHT22;21818;51.078;12.108;2023-01-04T13:02:47;14.70;73.40
35700;DHT22;21818;51.078;12.108;2023-01-04T13:05:36;14.70;73.40
35700;DHT22;21818;51.078;12.108;2023-01-04T13:08:09;14.70;73.50
35700;DHT22;21818;51.078;12.108;2023-01-04T13:10:46;14.60;73.50
35700;DHT22;21818;51.078;12.108;2023-01-04T13:16:24;14.70;73.50
35700;DHT22;21818;51.078;12.108;2023-01-04T13:18:56;14.60;73.40
35700;DHT22;21818;51.078;12.108;2023-01-04T13:26:47;14.60;73.50
35700;DHT22;21818;51.078;12.108;2023-01-04T13:29:31;14.60;73.50
35700;DHT22;21818;51.078;12.108;2023-01-04T13:32:13;14.60;73.50
35700;DHT22;21818;51.078;12.108;2023-01-04T13:37:46;14.60;73.60
35700;DHT22;21818;51.078;12.108;2023-01-04T13:48:17;14.50;73.70
35700;DHT22;21818;51.078;12.108;2023-01-04T13:50:56;14.50;73.80
35700;DHT22;21818;51.078;12.108;2023-01-04T13:53:24;14.50;73.80
35700;DHT22;21818;51.078;12.108;2023-01-04T13:55:52;14.50;73.90
35700;DHT22;21818;51.078;12.108;2023-01-04T13:58:20;14.50;73.90
35700;DHT22;21818;51.078;12.108;2023-01-04T14:01:01;14.50;73.90
35700;DHT22;21818;51.078;12.108;2023-01-04T14:03:31;14.50;73.90
35700;DHT22;21818;51.078;12.108;2023-01-04T14:11:29;14.50;74.00
35700;DHT22;21818;51.078;12.108;2023-01-04T14:17:57;14.40;74.00
35700;DHT22;21818;51.078;12.108;2023-01-04T14:25:36;14.40;74.10
35700;DHT22;21818;51.078;12.108;2023-01-04T14:30:51;14.40;74.20
35700;DHT22;21818;51.078;12.108;2023-01-04T14:36:14;14.40;74.20
35700;DHT22;21818;51.078;12.108;2023-01-04T14:41:43;14.40;74.30
35700;DHT22;21818;51.078;12.108;2023-01-04T14:44:29;14.30;74.30
35700;DHT22;21818;51.078;12.108;2023-01-04T14:46:57;14.30;74.40
35700;DHT22;21818;51.078;12.108;2023-01-04T14:49:23;14.30;75.00
35700;DHT22;21818;51.078;12.108;2023-01-04T14:51:55;14.30;74.50
35700;DHT22;21818;51.078;12.108;2023-01-04T14:54:22;14.30;74.50
35700;DHT22;21818;51.078;12.108;2023-01-04T14:56:49;14.30;74.50
35700;DHT22;21818;51.078;12.108;2023-01-04T14:59:14;14.30;74.60
35700;DHT22;21818;51.078;12.108;2023-01-04T15:01:40;14.30;74.60
35700;DHT22;21818;51.078;12.108;2023-01-04T15:04:06;14.30;74.70
35700;DHT22;21818;51.078;12.108;2023-01-04T15:06:33;14.30;74.70
35700;DHT22;21818;51.078;12.108;2023-01-04T15:08:59;14.30;74.70
35700;DHT22;21818;51.078;12.108;2023-01-04T15:11:24;14.30;74.80
35700;DHT22;21818;51.078;12.108;2023-01-04T15:13:50;14.30;74.80
35700;DHT22;21818;51.078;12.108;2023-01-04T15:16:16;14.30;74.80
35700;DHT22;21818;51.078;12.108;2023-01-04T15:18:43;14.30;74.80
35700;DHT22;21818;51.078;12.108;2023-01-04T15:21:09;14.30;74.80
35700;DHT22;21818;51.078;12.108;2023-01-04T15:23:36;14.30;74.90
35700;DHT22;21818;51.078;12.108;2023-01-04T15:26:06;14.30;74.90
35700;DHT22;21818;51.078;12.108;2023-01-04T15:28:32;14.30;75.00
35700;DHT22;21818;51.078;12.108;2023-01-04T15:30:58;14.30;75.00
35700;DHT22;21818;51.078;12.108;2023-01-04T15:33:23;14.30;75.00
35700;DHT22;21818;51.078;12.108;2023-01-04T15:35:58;14.30;75.00
35700;DHT22;21818;51.078;12.108;2023-01-04T15:38:24;14.30;75.00
35700;DHT22;21818;51.078;12.108;2023-01-04T15:40:49;14.30;75.00
35700;DHT22;21818;51.078;12.108;2023-01-04T15:43:15;14.30;75.10
35700;DHT22;21818;51.078;12.108;2023-01-04T15:45:40;14.30;75.10
35700;DHT22;21818;51.078;12.108;2023-01-04T15:48:08;14.30;75.10
35700;DHT22;21818;51.078;12.108;2023-01-04T15:50:36;14.30;75.10
35700;DHT22;21818;51.078;12.108;2023-01-04T15:53:03;14.30;75.10
35700;DHT22;21818;51.078;12.108;2023-01-04T15:55:30;14.20;75.10
35700;DHT22;21818;51.078;12.108;2023-01-04T15:57:55;14.20;75.10
35700;DHT22;21818;51.078;12.108;2023-01-04T16:00:21;14.30;75.20
35700;DHT22;21818;51.078;12.108;2023-01-04T16:02:47;14.20;75.10
35700;DHT22;21818;51.078;12.108;2023-01-04T16:05:12;14.20;75.10
35700;DHT22;21818;51.078;12.108;2023-01-04T16:07:40;14.30;75.20
35700;DHT22;21818;51.078;12.108;2023-01-04T16:10:06;14.30;75.20
35700;DHT22;21818;51.078;12.108;2023-01-04T16:12:31;14.30;75.20
35700;DHT22;21818;51.078;12.108;2023-01-04T16:15:07;14.30;75.20
35700;DHT22;21818;51.078;12.108;2023-01-04T16:17:33;14.30;75.20
35700;DHT22;21818;51.078;12.108;2023-01-04T16:19:58;14.30;75.20
35700;DHT22;21818;51.078;12.108;2023-01-04T16:22:24;14.30;75.20
35700;DHT22;21818;51.078;12.108;2023-01-04T16:24:50;14.30;75.20
35700;DHT22;21818;51.078;12.108;2023-01-04T16:27:15;14.30;75.70
35700;DHT22;21818;51.078;12.108;2023-01-04T16:29:41;14.30;75.20
35700;DHT22;21818;51.078;12.108;2023-01-04T16:32:06;14.30;75.20
35700;DHT22;21818;51.078;12.108;2023-01-04T16:34:32;14.30;75.80
35700;DHT22;21818;51.078;12.108;2023-01-04T16:36:57;14.30;75.30
35700;DHT22;21818;51.078;12.108;2023-01-04T16:39:23;14.30;75.20
35700;DHT22;21818;51.078;12.108;2023-01-04T16:41:49;14.30;75.30
35700;DHT22;21818;51.078;12.108;2023-01-04T16:44:14;14.30;75.30
35700;DHT22;21818;51.078;12.108;2023-01-04T16:46:40;14.30;75.30
35700;DHT22;21818;51.078;12.108;2023-01-04T16:49:13;14.30;75.30
35700;DHT22;21818;51.078;12.108;2023-01-04T16:51:39;14.30;75.40
35700;DHT22;21818;51.078;12.108;2023-01-04T16:54:09;14.30;75.30
35700;DHT22;21818;51.078;12.108;2023-01-04T16:56:35;14.30;75.30
35700;DHT22;21818;51.078;12.108;2023-01-04T16:59:01;14.30;75.30
35700;DHT22;21818;51.078;12.108;2023-01-04T17:01:29;14.30;75.30
35700;DHT22;21818;51.078;12.108;2023-01-04T17:04:00;14.30;75.30
35700;DHT22;21818;51.078;12.108;2023-01-04T17:06:28;14.30;75.30
35700;DHT22;21818;51.078;12.108;2023-01-04T17:08:54;14.30;75.30
35700;DHT22;21818;51.078;12.108;2023-01-04T17:11:23;14.40;75.30
35700;DHT22;21818;51.078;12.108;2023-01-04T17:13:49;14.30;75.30
35700;DHT22;21818;51.078;12.108;2023-01-04T17:16:14;14.40;75.30
35700;DHT22;21818;51.078;12.108;2023-01-04T17:18:40;14.40;75.30
35700;DHT22;21818;51.078;12.108;2023-01-04T17:21:09;14.40;75.30
35700;DHT22;21818;51.078;12.108;2023-01-04T17:23:38;14.40;75.30
35700;DHT22;21818;51.078;12.108;2023-01-04T17:26:08;14.40;75.40